sensor_id;sensor_type;location;lat;lon;timestamp;temperature;humidity
54429;DHT22;40337;52.978;6.310;2022-08-19T00:00:50;16.50;99.90
54429;DHT22;40337;52.978;6.310;2022-08-19T00:03:16;16.50;99.90
54429;DHT22;40337;52.978;6.310;2022-08-19T00:05:42;16.50;99.90
54429;DHT22;40337;52.978;6.310;2022-08-19T00:08:08;16.40;99.90
54429;DHT22;40337;52.978;6.310;2022-08-19T00:10:33;16.50;99.90
54429;DHT22;40337;52.978;6.310;2022-08-19T00:12:59;16.40;99.90
54429;DHT22;40337;52.978;6.310;2022-08-19T00:15:25;16.40;99.90
54429;DHT22;40337;52.978;6.310;2022-08-19T00:17:50;16.50;99.90
54429;DHT22;40337;52.978;6.310;2022-08-19T00:20:19;16.50;99.90
54429;DHT22;40337;52.978;6.310;2022-08-19T00:22:46;16.50;99.90
54429;DHT22;40337;52.978;6.310;2022-08-19T00:25:13;16.50;99.90
54429;DHT22;40337;52.978;6.310;2022-08-19T00:27:40;16.40;99.90
54429;DHT22;40337;52.978;6.310;2022-08-19T00:30:07;16.40;99.90
54429;DHT22;40337;52.978;6.310;2022-08-19T00:32:34;16.40;99.90
54429;DHT22;40337;52.978;6.310;2022-08-19T00:35:00;16.40;99.90
54429;DHT22;40337;52.978;6.310;2022-08-19T00:37:26;16.40;99.90
54429;DHT22;40337;52.978;6.310;2022-08-19T00:39:53;16.40;99.90
54429;DHT22;40337;52.978;6.310;2022-08-19T00:42:20;16.40;99.90
54429;DHT22;40337;52.978;6.310;2022-08-19T00:44:46;16.40;99.90
54429;DHT22;40337;52.978;6.310;2022-08-19T00:47:11;16.40;99.90
54429;DHT22;40337;52.978;6.310;2022-08-19T00:49:41;16.30;99.90
54429;DHT22;40337;52.978;6.310;2022-08-19T00:52:12;16.40;99.90
54429;DHT22;40337;52.978;6.310;2022-08-19T00:54:41;16.40;99.90
54429;DHT22;40337;52.978;6.310;2022-08-19T00:57:12;16.40;99.90
54429;DHT22;40337;52.978;6.310;2022-08-19T00:59:42;16.40;99.90
54429;DHT22;40337;52.978;6.310;2022-08-19T01:02:11;16.30;99.90
54429;DHT22;40337;52.978;6.310;2022-08-19T01:04:38;16.20;99.90
54429;DHT22;40337;52.978;6.310;2022-08-19T01:07:03;16.20;99.90
54429;DHT22;40337;52.978;6.310;2022-08-19T01:09:29;16.20;99.90
54429;DHT22;40337;52.978;6.310;2022-08-19T01:11:56;16.10;99.90
54429;DHT22;40337;52.978;6.310;2022-08-19T01:14:22;16.00;99.90
54429;DHT22;40337;52.978;6.310;2022-08-19T01:16:49;16.00;99.90
54429;DHT22;40337;52.978;6.310;2022-08-19T01:19:26;16.00;99.90
54429;DHT22;40337;52.978;6.310;2022-08-19T01:22:01;16.00;99.90
54429;DHT22;40337;52.978;6.310;2022-08-19T01:24:27;16.00;99.90
54429;DHT22;40337;52.978;6.310;2022-08-19T01:26:53;16.00;99.90
54429;DHT22;40337;52.978;6.310;2022-08-19T01:29:20;16.00;99.90
54429;DHT22;40337;52.978;6.310;2022-08-19T01:31:45;15.90;99.90
54429;DHT22;40337;52.978;6.310;2022-08-19T01:34:11;15.80;99.90
54429;DHT22;40337;52.978;6.310;2022-08-19T01:36:40;15.70;99.90
54429;DHT22;40337;52.978;6.310;2022-08-19T01:39:11;15.70;99.90
54429;DHT22;40337;52.978;6.310;2022-08-19T01:41:37;15.60;99.90
54429;DHT22;40337;52.978;6.310;2022-08-19T01:44:05;15.50;99.90
54429;DHT22;40337;52.978;6.310;2022-08-19T01:46:31;15.50;99.90
54429;DHT22;40337;52.978;6.310;2022-08-19T01:48:57;15.50;99.90
54429;DHT22;40337;52.978;6.310;2022-08-19T01:51:23;15.40;99.90
54429;DHT22;40337;52.978;6.310;2022-08-19T01:53:50;15.40;99.90
54429;DHT22;40337;52.978;6.310;2022-08-19T01:56:17;15.30;99.90
54429;DHT22;40337;52.978;6.310;2022-08-19T01:58:51;15.30;99.90
54429;DHT22;40337;52.978;6.310;2022-08-19T02:01:18;15.30;99.90
54429;DHT22;40337;52.978;6.310;2022-08-19T02:03:43;15.30;99.90
54429;DHT22;40337;52.978;6.310;2022-08-19T02:06:09;15.20;99.90
54429;DHT22;40337;52.978;6.310;2022-08-19T02:08:36;15.20;99.90
54429;DHT22;40337;52.978;6.310;2022-08-19T02:11:03;15.10;99.90
54429;DHT22;40337;52.978;6.310;2022-08-19T02:13:31;15.00;99.90
54429;DHT22;40337;52.978;6.310;2022-08-19T02:15:57;15.00;99.90
54429;DHT22;40337;52.978;6.310;2022-08-19T02:18:23;15.00;99.90
54429;DHT22;40337;52.978;6.310;2022-08-19T02:20:48;15.00;99.90
54429;DHT22;40337;52.978;6.310;2022-08-19T02:23:16;15.00;99.90
54429;DHT22;40337;52.978;6.310;2022-08-19T02:25:44;15.00;99.90
54429;DHT22;40337;52.978;6.310;2022-08-19T02:28:11;15.00;99.90
54429;DHT22;40337;52.978;6.310;2022-08-19T02:30:37;14.90;99.90
54429;DHT22;40337;52.978;6.310;2022-08-19T02:33:03;14.90;99.90
54429;DHT22;40337;52.978;6.310;2022-08-19T02:35:30;14.90;99.90
54429;DHT22;40337;52.978;6.310;2022-08-19T02:37:55;14.90;99.90
54429;DHT22;40337;52.978;6.310;2022-08-19T02:40:39;15.00;99.90
54429;DHT22;40337;52.978;6.310;2022-08-19T02:43:07;15.00;99.90
54429;DHT22;40337;52.978;6.310;2022-08-19T02:45:35;15.00;99.90
54429;DHT22;40337;52.978;6.310;2022-08-19T02:48:02;15.00;99.90
54429;DHT22;40337;52.978;6.310;2022-08-19T02:50:27;15.00;99.90
54429;DHT22;40337;52.978;6.310;2022-08-19T02:52:53;15.10;99.90
54429;DHT22;40337;52.978;6.310;2022-08-19T02:55:19;15.20;99.90
54429;DHT22;40337;52.978;6.310;2022-08-19T02:57:46;15.20;99.90
54429;DHT22;40337;52.978;6.310;2022-08-19T03:00:12;15.20;99.90
54429;DHT22;40337;52.978;6.310;2022-08-19T03:02:38;15.20;99.90
54429;DHT22;40337;52.978;6.310;2022-08-19T03:05:05;15.20;99.90
54429;DHT22;40337;52.978;6.310;2022-08-19T03:07:31;15.10;99.90
54429;DHT22;40337;52.978;6.310;2022-08-19T03:09:57;15.00;99.90
54429;DHT22;40337;52.978;6.310;2022-08-19T03:12:23;15.00;99.90
54429;DHT22;40337;52.978;6.310;2022-08-19T03:14:49;15.00;99.90
54429;DHT22;40337;52.978;6.310;2022-08-19T03:17:15;15.00;99.90
54429;DHT22;40337;52.978;6.310;2022-08-19T03:19:40;15.00;99.90
54429;DHT22;40337;52.978;6.310;2022-08-19T03:22:06;15.00;99.90
54429;DHT22;40337;52.978;6.310;2022-08-19T03:24:32;15.00;99.90
54429;DHT22;40337;52.978;6.310;2022-08-19T03:26:58;15.00;99.90
54429;DHT22;40337;52.978;6.310;2022-08-19T03:29:26;15.10;99.90
54429;DHT22;40337;52.978;6.310;2022-08-19T03:31:52;15.10;99.90
54429;DHT22;40337;52.978;6.310;2022-08-19T03:34:25;15.10;99.90
54429;DHT22;40337;52.978;6.310;2022-08-19T03:36:53;15.00;99.90
54429;DHT22;40337;52.978;6.310;2022-08-19T03:39:20;14.90;99.90
54429;DHT22;40337;52.978;6.310;2022-08-19T03:41:47;14.80;99.90
54429;DHT22;40337;52.978;6.310;2022-08-19T03:44:19;14.70;99.90
54429;DHT22;40337;52.978;6.310;2022-08-19T03:46:54;14.60;99.90
54429;DHT22;40337;52.978;6.310;2022-08-19T03:49:22;14.60;99.90
54429;DHT22;40337;52.978;6.310;2022-08-19T03:51:49;14.50;99.90
54429;DHT22;40337;52.978;6.310;2022-08-19T03:54:19;14.50;99.90
54429;DHT22;40337;52.978;6.310;2022-08-19T03:56:47;14.50;99.90
54429;DHT22;40337;52.978;6.310;2022-08-19T03:59:16;14.50;99.90
54429;DHT22;40337;52.978;6.310;2022-08-19T04:01:43;14.60;99.90
54429;DHT22;40337;52.978;6.310;2022-08-19T04:04:08;14.70;99.90
54429;DHT22;40337;52.978;6.310;2022-08-19T04:06:35;14.70;99.90
54429;DHT22;40337;52.978;6.310;2022-08-19T04:09:04;14.70;99.90
54429;DHT22;40337;52.978;6.310;2022-08-19T04:11:36;14.80;99.90
54429;DHT22;40337;52.978;6.310;2022-08-19T04:14:06;14.80;99.90
54429;DHT22;40337;52.978;6.310;2022-08-19T04:16:33;14.80;99.90
54429;DHT22;40337;52.978;6.310;2022-08-19T04:19:03;14.80;99.90
54429;DHT22;40337;52.978;6.310;2022-08-19T04:21:29;14.80;99.90
54429;DHT22;40337;52.978;6.310;2022-08-19T04:23:56;14.80;99.90
54429;DHT22;40337;52.978;6.310;2022-08-19T04:26:31;14.90;99.90
54429;DHT22;40337;52.978;6.310;2022-08-19T04:28:58;14.90;99.90
54429;DHT22;40337;52.978;6.310;2022-08-19T04:31:28;14.80;99.90
54429;DHT22;40337;52.978;6.310;2022-08-19T04:33:58;14.80;99.90
54429;DHT22;40337;52.978;6.310;2022-08-19T04:36:27;14.80;99.90
54429;DHT22;40337;52.978;6.310;2022-08-19T04:38:55;14.80;99.90
54429;DHT22;40337;52.978;6.310;2022-08-19T04:41:21;14.90;99.90
54429;DHT22;40337;52.978;6.310;2022-08-19T04:44:05;14.90;99.90
54429;DHT22;40337;52.978;6.310;2022-08-19T04:46:31;14.90;99.90
54429;DHT22;40337;52.978;6.310;2022-08-19T04:48:58;14.90;99.90
54429;DHT22;40337;52.978;6.310;2022-08-19T04:51:24;14.90;99.90
54429;DHT22;40337;52.978;6.310;2022-08-19T04:53:51;14.90;99.90
54429;DHT22;40337;52.978;6.310;2022-08-19T04:56:18;14.90;99.90
54429;DHT22;40337;52.978;6.310;2022-08-19T04:58:47;14.80;99.90
54429;DHT22;40337;52.978;6.310;2022-08-19T05:01:33;14.80;99.90
54429;DHT22;40337;52.978;6.310;2022-08-19T05:04:00;14.90;99.90
54429;DHT22;40337;52.978;6.310;2022-08-19T05:06:26;15.00;99.90
54429;DHT22;40337;52.978;6.310;2022-08-19T05:08:51;15.00;99.90
54429;DHT22;40337;52.978;6.310;2022-08-19T05:11:20;15.00;99.90
54429;DHT22;40337;52.978;6.310;2022-08-19T05:13:47;15.00;99.90
54429;DHT22;40337;52.978;6.310;2022-08-19T05:16:15;14.90;99.90
54429;DHT22;40337;52.978;6.310;2022-08-19T05:18:42;14.90;99.90
54429;DHT22;40337;52.978;6.310;2022-08-19T05:21:27;14.90;99.90
54429;DHT22;40337;52.978;6.310;2022-08-19T05:24:12;15.00;99.90
54429;DHT22;40337;52.978;6.310;2022-08-19T05:26:40;14.90;99.90
54429;DHT22;40337;52.978;6.310;2022-08-19T05:29:07;15.00;99.90
54429;DHT22;40337;52.978;6.310;2022-08-19T05:31:34;15.00;99.90
54429;DHT22;40337;52.978;6.310;2022-08-19T05:34:01;15.10;99.90
54429;DHT22;40337;52.978;6.310;2022-08-19T05:36:32;15.10;99.90
54429;DHT22;40337;52.978;6.310;2022-08-19T05:38:59;15.20;99.90
54429;DHT22;40337;52.978;6.310;2022-08-19T05:41:25;15.20;99.90
54429;DHT22;40337;52.978;6.310;2022-08-19T05:43:55;15.20;99.90
54429;DHT22;40337;52.978;6.310;2022-08-19T05:46:21;15.30;99.90
54429;DHT22;40337;52.978;6.310;2022-08-19T05:48:47;15.40;99.90
54429;DHT22;40337;52.978;6.310;2022-08-19T05:51:14;15.50;99.90
54429;DHT22;40337;52.978;6.310;2022-08-19T05:53:39;15.50;99.90
54429;DHT22;40337;52.978;6.310;2022-08-19T05:56:12;15.60;99.90
54429;DHT22;40337;52.978;6.310;2022-08-19T05:58:37;15.60;99.90
54429;DHT22;40337;52.978;6.310;2022-08-19T06:01:09;15.70;99.90
54429;DHT22;40337;52.978;6.310;2022-08-19T06:03:35;15.80;99.90
54429;DHT22;40337;52.978;6.310;2022-08-19T06:06:03;15.90;99.90
54429;DHT22;40337;52.978;6.310;2022-08-19T06:08:29;15.90;99.90
54429;DHT22;40337;52.978;6.310;2022-08-19T06:10:56;16.00;99.90
54429;DHT22;40337;52.978;6.310;2022-08-19T06:13:22;16.10;99.90
54429;DHT22;40337;52.978;6.310;2022-08-19T06:15:48;16.10;99.90
54429;DHT22;40337;52.978;6.310;2022-08-19T06:18:14;16.20;99.90
54429;DHT22;40337;52.978;6.310;2022-08-19T06:20:41;16.30;99.90
54429;DHT22;40337;52.978;6.310;2022-08-19T06:23:07;16.40;99.90
54429;DHT22;40337;52.978;6.310;2022-08-19T06:25:33;16.50;99.90
54429;DHT22;40337;52.978;6.310;2022-08-19T06:27:59;16.50;99.90
54429;DHT22;40337;52.978;6.310;2022-08-19T06:30:24;16.60;99.90
54429;DHT22;40337;52.978;6.310;2022-08-19T06:32:50;16.70;99.90
54429;DHT22;40337;52.978;6.310;2022-08-19T06:35:16;16.80;99.90
54429;DHT22;40337;52.978;6.310;2022-08-19T06:37:42;16.80;99.90
54429;DHT22;40337;52.978;6.310;2022-08-19T06:40:08;16.90;99.90
54429;DHT22;40337;52.978;6.310;2022-08-19T06:42:36;16.90;99.90
54429;DHT22;40337;52.978;6.310;2022-08-19T06:45:04;17.00;99.90
54429;DHT22;40337;52.978;6.310;2022-08-19T06:47:30;17.10;99.90
54429;DHT22;40337;52.978;6.310;2022-08-19T06:49:58;17.20;99.90
54429;DHT22;40337;52.978;6.310;2022-08-19T06:52:27;17.20;99.90
54429;DHT22;40337;52.978;6.310;2022-08-19T06:54:53;17.30;99.90
54429;DHT22;40337;52.978;6.310;2022-08-19T06:57:20;17.40;99.90
54429;DHT22;40337;52.978;6.310;2022-08-19T06:59:46;17.40;99.90
54429;DHT22;40337;52.978;6.310;2022-08-19T07:02:11;17.50;99.90
54429;DHT22;40337;52.978;6.310;2022-08-19T07:04:38;17.50;99.90
54429;DHT22;40337;52.978;6.310;2022-08-19T07:07:12;17.60;99.90
54429;DHT22;40337;52.978;6.310;2022-08-19T07:09:40;17.70;99.90
54429;DHT22;40337;52.978;6.310;2022-08-19T07:12:07;17.80;99.90
54429;DHT22;40337;52.978;6.310;2022-08-19T07:14:35;18.00;99.90
54429;DHT22;40337;52.978;6.310;2022-08-19T07:17:04;18.10;99.90
54429;DHT22;40337;52.978;6.310;2022-08-19T07:19:31;18.10;99.90
54429;DHT22;40337;52.978;6.310;2022-08-19T07:21:58;18.30;99.90
54429;DHT22;40337;52.978;6.310;2022-08-19T07:24:27;18.30;99.90
54429;DHT22;40337;52.978;6.310;2022-08-19T07:26:56;18.40;99.90
54429;DHT22;40337;52.978;6.310;2022-08-19T07:29:26;18.50;99.90
54429;DHT22;40337;52.978;6.310;2022-08-19T07:31:53;18.50;99.90
54429;DHT22;40337;52.978;6.310;2022-08-19T07:34:22;18.50;99.90
54429;DHT22;40337;52.978;6.310;2022-08-19T07:36:48;18.60;99.90
54429;DHT22;40337;52.978;6.310;2022-08-19T07:39:18;18.90;99.90
54429;DHT22;40337;52.978;6.310;2022-08-19T07:41:45;19.40;99.90
54429;DHT22;40337;52.978;6.310;2022-08-19T07:44:12;20.00;99.90
54429;DHT22;40337;52.978;6.310;2022-08-19T07:46:41;20.70;99.90
54429;DHT22;40337;52.978;6.310;2022-08-19T07:49:07;21.20;99.90
54429;DHT22;40337;52.978;6.310;2022-08-19T07:51:34;21.30;99.90
54429;DHT22;40337;52.978;6.310;2022-08-19T07:54:00;21.10;99.90
54429;DHT22;40337;52.978;6.310;2022-08-19T07:56:25;21.00;99.90
54429;DHT22;40337;52.978;6.310;2022-08-19T07:58:52;21.00;99.90
54429;DHT22;40337;52.978;6.310;2022-08-19T08:01:21;20.90;99.90
54429;DHT22;40337;52.978;6.310;2022-08-19T08:03:48;20.80;99.90
54429;DHT22;40337;52.978;6.310;2022-08-19T08:06:32;20.80;99.90
54429;DHT22;40337;52.978;6.310;2022-08-19T08:09:21;20.70;99.90
54429;DHT22;40337;52.978;6.310;2022-08-19T08:12:03;20.70;99.90
54429;DHT22;40337;52.978;6.310;2022-08-19T08:14:30;20.60;99.90
54429;DHT22;40337;52.978;6.310;2022-08-19T08:16:56;20.50;99.90
54429;DHT22;40337;52.978;6.310;2022-08-19T08:19:23;20.50;99.90
54429;DHT22;40337;52.978;6.310;2022-08-19T08:21:50;20.50;99.90
54429;DHT22;40337;52.978;6.310;2022-08-19T08:24:16;20.70;99.90
54429;DHT22;40337;52.978;6.310;2022-08-19T08:26:42;20.80;99.90
54429;DHT22;40337;52.978;6.310;2022-08-19T08:29:10;21.00;99.90
54429;DHT22;40337;52.978;6.310;2022-08-19T08:31:38;21.00;99.90
54429;DHT22;40337;52.978;6.310;2022-08-19T08:34:04;21.10;99.90
54429;DHT22;40337;52.978;6.310;2022-08-19T08:36:29;21.20;99.90
54429;DHT22;40337;52.978;6.310;2022-08-19T08:38:59;21.30;99.90
54429;DHT22;40337;52.978;6.310;2022-08-19T08:44:31;21.50;99.90
54429;DHT22;40337;52.978;6.310;2022-08-19T08:47:05;21.50;99.90
54429;DHT22;40337;52.978;6.310;2022-08-19T08:49:55;21.60;99.90
54429;DHT22;40337;52.978;6.310;2022-08-19T08:52:33;22.10;99.90
54429;DHT22;40337;52.978;6.310;2022-08-19T08:55:07;22.70;99.90
54429;DHT22;40337;52.978;6.310;2022-08-19T09:00:20;23.90;99.90
54429;DHT22;40337;52.978;6.310;2022-08-19T09:02:47;24.30;99.90
54429;DHT22;40337;52.978;6.310;2022-08-19T09:05:13;24.60;99.90
54429;DHT22;40337;52.978;6.310;2022-08-19T09:07:44;24.80;99.90
54429;DHT22;40337;52.978;6.310;2022-08-19T09:10:43;25.10;99.90
54429;DHT22;40337;52.978;6.310;2022-08-19T09:13:26;25.20;99.90
54429;DHT22;40337;52.978;6.310;2022-08-19T09:16:14;25.50;99.90
54429;DHT22;40337;52.978;6.310;2022-08-19T09:18:43;25.70;99.90
54429;DHT22;40337;52.978;6.310;2022-08-19T09:21:10;25.80;99.90
54429;DHT22;40337;52.978;6.310;2022-08-19T09:23:36;26.10;99.90
54429;DHT22;40337;52.978;6.310;2022-08-19T09:26:07;26.20;99.90
54429;DHT22;40337;52.978;6.310;2022-08-19T09:28:33;26.30;99.90
54429;DHT22;40337;52.978;6.310;2022-08-19T09:30:59;26.30;99.90
54429;DHT22;40337;52.978;6.310;2022-08-19T09:33:24;26.40;99.90
54429;DHT22;40337;52.978;6.310;2022-08-19T09:35:50;26.40;99.90
54429;DHT22;40337;52.978;6.310;2022-08-19T09:38:15;26.50;99.90
54429;DHT22;40337;52.978;6.310;2022-08-19T09:40:41;26.50;99.90
54429;DHT22;40337;52.978;6.310;2022-08-19T09:43:06;26.70;99.90
54429;DHT22;40337;52.978;6.310;2022-08-19T09:45:32;26.80;99.90
54429;DHT22;40337;52.978;6.310;2022-08-19T09:47:58;26.80;99.90
54429;DHT22;40337;52.978;6.310;2022-08-19T09:50:23;27.00;99.90
54429;DHT22;40337;52.978;6.310;2022-08-19T09:52:49;27.00;99.90
54429;DHT22;40337;52.978;6.310;2022-08-19T09:55:15;27.10;99.90
54429;DHT22;40337;52.978;6.310;2022-08-19T09:57:41;27.20;99.90
54429;DHT22;40337;52.978;6.310;2022-08-19T10:00:08;27.30;99.90
54429;DHT22;40337;52.978;6.310;2022-08-19T10:02:35;27.50;99.90
54429;DHT22;40337;52.978;6.310;2022-08-19T10:05:00;27.60;99.90
54429;DHT22;40337;52.978;6.310;2022-08-19T10:07:45;27.70;99.90
54429;DHT22;40337;52.978;6.310;2022-08-19T10:10:11;27.80;99.90
54429;DHT22;40337;52.978;6.310;2022-08-19T10:12:37;27.90;99.90
54429;DHT22;40337;52.978;6.310;2022-08-19T10:15:04;27.90;99.90
54429;DHT22;40337;52.978;6.310;2022-08-19T10:17:31;27.90;99.90
54429;DHT22;40337;52.978;6.310;2022-08-19T10:19:59;27.30;99.90
54429;DHT22;40337;52.978;6.310;2022-08-19T10:22:25;26.70;99.90
54429;DHT22;40337;52.978;6.310;2022-08-19T10:24:50;26.40;99.90
54429;DHT22;40337;52.978;6.310;2022-08-19T10:27:17;26.50;99.90
54429;DHT22;40337;52.978;6.310;2022-08-19T10:29:43;26.60;99.90
54429;DHT22;40337;52.978;6.310;2022-08-19T10:32:09;27.00;99.90
54429;DHT22;40337;52.978;6.310;2022-08-19T10:34:37;27.40;99.90
54429;DHT22;40337;52.978;6.310;2022-08-19T10:37:04;27.00;99.90
54429;DHT22;40337;52.978;6.310;2022-08-19T10:39:34;27.30;99.90
54429;DHT22;40337;52.978;6.310;2022-08-19T10:42:07;27.60;99.90
54429;DHT22;40337;52.978;6.310;2022-08-19T10:44:36;27.70;99.90
54429;DHT22;40337;52.978;6.310;2022-08-19T10:47:02;27.90;99.90
54429;DHT22;40337;52.978;6.310;2022-08-19T10:49:29;28.30;99.70
54429;DHT22;40337;52.978;6.310;2022-08-19T10:51:55;28.40;99.50
54429;DHT22;40337;52.978;6.310;2022-08-19T10:54:40;28.60;99.40
54429;DHT22;40337;52.978;6.310;2022-08-19T10:57:24;28.80;99.20
54429;DHT22;40337;52.978;6.310;2022-08-19T10:59:55;29.00;98.60
54429;DHT22;40337;52.978;6.310;2022-08-19T11:02:21;29.20;98.20
54429;DHT22;40337;52.978;6.310;2022-08-19T11:04:47;29.40;97.80
54429;DHT22;40337;52.978;6.310;2022-08-19T11:07:15;29.60;96.90
54429;DHT22;40337;52.978;6.310;2022-08-19T11:09:41;29.80;96.30
54429;DHT22;40337;52.978;6.310;2022-08-19T11:12:08;29.60;95.70
54429;DHT22;40337;52.978;6.310;2022-08-19T11:14:35;29.50;95.60
54429;DHT22;40337;52.978;6.310;2022-08-19T11:17:02;29.50;96.10
54429;DHT22;40337;52.978;6.310;2022-08-19T11:19:28;29.40;95.80
54429;DHT22;40337;52.978;6.310;2022-08-19T11:21:54;29.20;95.50
54429;DHT22;40337;52.978;6.310;2022-08-19T11:24:22;29.00;95.30
54429;DHT22;40337;52.978;6.310;2022-08-19T11:26:49;29.10;95.10
54429;DHT22;40337;52.978;6.310;2022-08-19T11:29:16;29.40;95.60
54429;DHT22;40337;52.978;6.310;2022-08-19T11:31:45;29.10;95.40
54429;DHT22;40337;52.978;6.310;2022-08-19T11:34:15;28.50;95.30
54429;DHT22;40337;52.978;6.310;2022-08-19T11:36:43;28.50;96.40
54429;DHT22;40337;52.978;6.310;2022-08-19T11:39:11;28.60;95.70
54429;DHT22;40337;52.978;6.310;2022-08-19T11:41:37;28.80;95.20
54429;DHT22;40337;52.978;6.310;2022-08-19T11:44:03;28.50;94.70
54429;DHT22;40337;52.978;6.310;2022-08-19T11:46:30;28.30;94.90
54429;DHT22;40337;52.978;6.310;2022-08-19T11:48:57;28.30;95.10
54429;DHT22;40337;52.978;6.310;2022-08-19T11:51:25;28.60;96.20
54429;DHT22;40337;52.978;6.310;2022-08-19T11:53:52;28.50;95.70
54429;DHT22;40337;52.978;6.310;2022-08-19T11:56:19;28.80;95.50
54429;DHT22;40337;52.978;6.310;2022-08-19T11:58:45;29.10;94.80
54429;DHT22;40337;52.978;6.310;2022-08-19T12:01:13;29.10;93.90
54429;DHT22;40337;52.978;6.310;2022-08-19T12:03:47;29.20;93.40
54429;DHT22;40337;52.978;6.310;2022-08-19T12:06:17;29.30;92.80
54429;DHT22;40337;52.978;6.310;2022-08-19T12:08:44;28.80;92.20
54429;DHT22;40337;52.978;6.310;2022-08-19T12:11:14;28.60;91.90
54429;DHT22;40337;52.978;6.310;2022-08-19T12:13:42;28.70;92.50
54429;DHT22;40337;52.978;6.310;2022-08-19T12:16:20;29.10;93.40
54429;DHT22;40337;52.978;6.310;2022-08-19T12:18:46;29.50;92.60
54429;DHT22;40337;52.978;6.310;2022-08-19T12:21:14;29.90;91.70
54429;DHT22;40337;52.978;6.310;2022-08-19T12:23:41;30.40;91.70
54429;DHT22;40337;52.978;6.310;2022-08-19T12:26:09;30.30;91.80
54429;DHT22;40337;52.978;6.310;2022-08-19T12:28:35;30.10;91.90
54429;DHT22;40337;52.978;6.310;2022-08-19T12:31:01;29.60;91.80
54429;DHT22;40337;52.978;6.310;2022-08-19T12:33:26;28.90;93.00
54429;DHT22;40337;52.978;6.310;2022-08-19T12:35:54;28.50;93.90
54429;DHT22;40337;52.978;6.310;2022-08-19T12:38:20;28.40;94.00
54429;DHT22;40337;52.978;6.310;2022-08-19T12:40:49;28.20;94.50
54429;DHT22;40337;52.978;6.310;2022-08-19T12:43:18;28.30;94.60
54429;DHT22;40337;52.978;6.310;2022-08-19T12:45:45;28.50;94.90
54429;DHT22;40337;52.978;6.310;2022-08-19T12:48:11;28.60;94.90
54429;DHT22;40337;52.978;6.310;2022-08-19T12:50:42;28.70;94.90
54429;DHT22;40337;52.978;6.310;2022-08-19T12:53:07;28.80;94.10
54429;DHT22;40337;52.978;6.310;2022-08-19T12:55:33;28.90;94.50
54429;DHT22;40337;52.978;6.310;2022-08-19T12:57:59;29.00;94.50
54429;DHT22;40337;52.978;6.310;2022-08-19T13:00:27;28.70;95.10
54429;DHT22;40337;52.978;6.310;2022-08-19T13:02:53;28.30;95.20
54429;DHT22;40337;52.978;6.310;2022-08-19T13:05:21;27.90;95.50
54429;DHT22;40337;52.978;6.310;2022-08-19T13:07:49;27.70;96.40
54429;DHT22;40337;52.978;6.310;2022-08-19T13:10:18;27.60;96.90
54429;DHT22;40337;52.978;6.310;2022-08-19T13:12:47;27.60;97.00
54429;DHT22;40337;52.978;6.310;2022-08-19T13:15:14;27.80;97.70
54429;DHT22;40337;52.978;6.310;2022-08-19T13:17:40;28.10;97.70
54429;DHT22;40337;52.978;6.310;2022-08-19T13:20:10;28.20;98.10
54429;DHT22;40337;52.978;6.310;2022-08-19T13:22:37;28.60;97.50
54429;DHT22;40337;52.978;6.310;2022-08-19T13:25:04;28.80;97.60
54429;DHT22;40337;52.978;6.310;2022-08-19T13:27:30;29.00;97.30
54429;DHT22;40337;52.978;6.310;2022-08-19T13:29:56;29.10;97.60
54429;DHT22;40337;52.978;6.310;2022-08-19T13:32:40;29.10;96.90
54429;DHT22;40337;52.978;6.310;2022-08-19T13:35:25;28.90;96.90
54429;DHT22;40337;52.978;6.310;2022-08-19T13:37:50;28.50;96.60
54429;DHT22;40337;52.978;6.310;2022-08-19T13:40:18;28.10;96.60
54429;DHT22;40337;52.978;6.310;2022-08-19T13:42:46;27.70;97.00
54429;DHT22;40337;52.978;6.310;2022-08-19T13:45:13;27.40;97.80
54429;DHT22;40337;52.978;6.310;2022-08-19T13:47:41;27.10;98.10
54429;DHT22;40337;52.978;6.310;2022-08-19T13:50:15;26.90;98.40
54429;DHT22;40337;52.978;6.310;2022-08-19T13:52:42;26.80;98.90
54429;DHT22;40337;52.978;6.310;2022-08-19T13:55:08;26.70;99.10
54429;DHT22;40337;52.978;6.310;2022-08-19T13:57:34;26.60;99.20
54429;DHT22;40337;52.978;6.310;2022-08-19T14:00:01;26.60;99.40
54429;DHT22;40337;52.978;6.310;2022-08-19T14:02:27;26.50;99.80
54429;DHT22;40337;52.978;6.310;2022-08-19T14:04:53;26.40;99.90
54429;DHT22;40337;52.978;6.310;2022-08-19T14:07:19;26.10;99.90
54429;DHT22;40337;52.978;6.310;2022-08-19T14:09:44;26.00;99.90
54429;DHT22;40337;52.978;6.310;2022-08-19T14:12:10;25.80;99.90
54429;DHT22;40337;52.978;6.310;2022-08-19T14:14:37;25.60;99.90
54429;DHT22;40337;52.978;6.310;2022-08-19T14:17:06;25.40;99.90
54429;DHT22;40337;52.978;6.310;2022-08-19T14:19:32;25.30;99.90
54429;DHT22;40337;52.978;6.310;2022-08-19T14:21:58;25.60;99.90
54429;DHT22;40337;52.978;6.310;2022-08-19T14:24:23;25.80;99.90
54429;DHT22;40337;52.978;6.310;2022-08-19T14:26:49;26.10;99.90
54429;DHT22;40337;52.978;6.310;2022-08-19T14:29:15;26.20;99.90
54429;DHT22;40337;52.978;6.310;2022-08-19T14:31:41;26.10;99.90
54429;DHT22;40337;52.978;6.310;2022-08-19T14:34:08;25.90;99.90
54429;DHT22;40337;52.978;6.310;2022-08-19T14:36:36;25.70;99.90
54429;DHT22;40337;52.978;6.310;2022-08-19T14:39:03;25.60;99.90
54429;DHT22;40337;52.978;6.310;2022-08-19T14:41:28;25.50;99.90
54429;DHT22;40337;52.978;6.310;2022-08-19T14:43:56;25.50;99.90
54429;DHT22;40337;52.978;6.310;2022-08-19T14:46:26;25.50;99.90
54429;DHT22;40337;52.978;6.310;2022-08-19T14:48:52;25.50;99.90
54429;DHT22;40337;52.978;6.310;2022-08-19T14:51:20;25.50;99.90
54429;DHT22;40337;52.978;6.310;2022-08-19T14:53:47;25.50;99.90
54429;DHT22;40337;52.978;6.310;2022-08-19T14:56:18;25.60;99.90
54429;DHT22;40337;52.978;6.310;2022-08-19T14:58:45;25.60;99.90
54429;DHT22;40337;52.978;6.310;2022-08-19T15:01:12;25.60;99.90
54429;DHT22;40337;52.978;6.310;2022-08-19T15:03:39;25.70;99.90
54429;DHT22;40337;52.978;6.310;2022-08-19T15:06:06;25.80;99.90
54429;DHT22;40337;52.978;6.310;2022-08-19T15:08:34;25.80;99.90
54429;DHT22;40337;52.978;6.310;2022-08-19T15:11:03;25.80;99.90
54429;DHT22;40337;52.978;6.310;2022-08-19T15:13:32;25.80;99.90
54429;DHT22;40337;52.978;6.310;2022-08-19T15:15:58;25.80;99.90
54429;DHT22;40337;52.978;6.310;2022-08-19T15:18:23;25.80;99.90
54429;DHT22;40337;52.978;6.310;2022-08-19T15:20:50;25.80;99.90
54429;DHT22;40337;52.978;6.310;2022-08-19T15:23:17;25.80;99.90
54429;DHT22;40337;52.978;6.310;2022-08-19T15:25:43;25.80;99.90
54429;DHT22;40337;52.978;6.310;2022-08-19T15:28:09;25.80;99.90
54429;DHT22;40337;52.978;6.310;2022-08-19T15:30:39;25.80;99.90
54429;DHT22;40337;52.978;6.310;2022-08-19T15:33:06;25.70;99.90
54429;DHT22;40337;52.978;6.310;2022-08-19T15:35:32;25.70;99.90
54429;DHT22;40337;52.978;6.310;2022-08-19T15:37:58;25.60;99.90
54429;DHT22;40337;52.978;6.310;2022-08-19T15:40:25;25.60;99.90